createdAt,value
2023-02-15T15:14:08.302Z,56.66
2023-02-15T15:16:36.667Z,57.66
2023-02-15T15:19:10.541Z,59.08
2023-02-15T15:21:47.807Z,59.83
2023-02-15T15:24:48.138Z,60.65
2023-02-15T15:27:44.887Z,60.26
2023-02-15T15:30:15.884Z,61.58
2023-02-15T15:32:59.397Z,61.64
2023-02-15T15:35:48.882Z,62.02
2023-02-15T15:38:41.698Z,62.44
2023-02-15T15:41:19.154Z,64.21
2023-02-15T15:44:12.548Z,63.46
2023-02-15T15:47:34.458Z,62.99
2023-02-15T15:50:13.008Z,63.10
2023-02-15T15:52:47.735Z,63.46
2023-02-15T15:55:22.584Z,64.16
2023-02-15T15:57:58.291Z,63.78
2023-02-15T16:00:47.975Z,65.53
2023-02-15T16:03:36.734Z,65.87
2023-02-15T16:06:05.266Z,67.26
2023-02-15T16:08:39.546Z,66.45
2023-02-15T16:11:16.840Z,65.90
2023-02-15T16:13:45.582Z,66.58
2023-02-15T16:16:20.863Z,66.45
2023-02-15T16:18:49.805Z,66.13
2023-02-15T16:21:24.367Z,65.74
2023-02-15T16:24:26.835Z,65.70
2023-02-15T16:27:21.026Z,65.87
2023-02-15T16:29:49.243Z,66.47
2023-02-15T16:32:22.272Z,67.44
2023-02-15T16:34:59.476Z,66.87
2023-02-15T16:37:33.085Z,66.55
2023-02-15T16:40:01.673Z,67.22
2023-02-15T16:42:30.151Z,67.34
2023-02-15T16:45:15.015Z,66.99
2023-02-15T16:47:48.098Z,67.55
2023-02-15T16:50:35.539Z,67.21
2023-02-15T16:53:07.287Z,67.58
2023-02-15T16:55:40.282Z,68.76
2023-02-15T16:58:14.537Z,69.32
2023-02-15T17:00:43.443Z,70.85
2023-02-15T17:03:14.384Z,69.93
2023-02-15T17:05:48.245Z,71.04
2023-02-15T17:08:30.000Z,71.72
2023-02-15T17:11:01.109Z,73.43
2023-02-15T17:13:30.803Z,73.74
2023-02-15T17:16:02.265Z,72.98
2023-02-15T17:18:59.584Z,73.31
2023-02-15T17:21:34.196Z,73.24
2023-02-15T17:24:05.267Z,74.15
2023-02-15T17:26:38.735Z,73.95
2023-02-15T17:29:36.535Z,73.49
2023-02-15T17:32:10.712Z,73.95
2023-02-15T17:34:47.959Z,73.62
2023-02-15T17:37:26.595Z,73.42
2023-02-15T17:39:55.832Z,73.55
2023-02-15T17:42:24.068Z,74.19
2023-02-15T17:44:52.329Z,74.21
2023-02-15T17:47:24.878Z,74.04
2023-02-15T17:49:53.742Z,73.12
2023-02-15T17:52:21.963Z,73.65
2023-02-15T17:55:09.319Z,73.68
2023-02-15T17:57:38.853Z,73.11
2023-02-15T18:00:26.929Z,73.16
2023-02-15T18:03:14.008Z,73.14
2023-02-15T18:06:01.088Z,73.77
2023-02-15T18:08:48.726Z,73.50
2023-02-15T18:11:35.615Z,74.43
2023-02-15T18:14:09.858Z,73.47
2023-02-15T18:16:43.526Z,73.45
2023-02-15T18:19:33.429Z,73.62
2023-02-15T18:22:04.704Z,73.99
2023-02-15T18:24:33.571Z,74.20
2023-02-15T18:27:01.791Z,73.70
2023-02-15T18:29:31.458Z,73.31
2023-02-15T18:32:04.303Z,73.26
2023-02-15T18:34:38.507Z,75.00
2023-02-15T18:37:12.875Z,75.74
2023-02-15T18:39:46.969Z,75.59
2023-02-15T18:42:34.468Z,75.23
2023-02-15T18:45:17.075Z,74.54
2023-02-15T18:47:48.992Z,74.52
2023-02-15T18:50:19.755Z,75.37
2023-02-15T18:52:52.594Z,76.02
2023-02-15T18:55:25.040Z,76.55
2023-02-15T18:57:55.613Z,75.86
2023-02-15T19:00:30.466Z,76.64
2023-02-15T19:03:05.059Z,76.11
2023-02-15T19:05:33.800Z,76.26
2023-02-15T19:08:05.112Z,75.91
2023-02-15T19:10:36.402Z,76.15
2023-02-15T19:13:09.598Z,77.84
2023-02-15T19:15:39.022Z,77.76
2023-02-15T19:18:10.168Z,77.69
2023-02-15T19:20:47.965Z,77.15
2023-02-15T19:23:21.861Z,77.34
2023-02-15T19:25:53.137Z,76.75
2023-02-15T19:28:32.455Z,76.59
2023-02-15T19:31:00.868Z,76.95
2023-02-15T19:33:29.346Z,76.40
2023-02-15T19:36:00.419Z,76.74
2023-02-15T19:38:32.618Z,77.13
2023-02-15T19:41:07.805Z,76.83
2023-02-15T19:43:36.551Z,77.82
2023-02-15T19:46:05.223Z,77.73
2023-02-15T19:48:33.689Z,78.28
2023-02-15T19:51:03.790Z,77.97
2023-02-15T19:53:32.030Z,77.80
2023-02-15T19:56:00.128Z,77.60
2023-02-15T19:58:28.565Z,77.68
2023-02-15T20:00:56.706Z,77.36
2023-02-15T20:03:24.762Z,76.75
2023-02-15T20:05:56.062Z,76.64
2023-02-15T20:08:24.269Z,76.70
2023-02-15T20:10:52.723Z,76.03
2023-02-15T20:13:21.416Z,76.37
2023-02-15T20:15:50.892Z,76.21
2023-02-15T20:18:21.899Z,76.78
2023-02-15T20:20:52.645Z,76.61
2023-02-15T20:23:31.183Z,76.51
2023-02-15T20:26:02.164Z,76.64
2023-02-15T20:28:31.895Z,76.97
2023-02-15T20:31:00.504Z,77.22
2023-02-15T20:33:28.845Z,76.94
2023-02-15T20:35:58.798Z,77.22
2023-02-15T20:38:29.969Z,77.20
2023-02-15T20:41:38.819Z,78.59
2023-02-15T20:44:26.053Z,78.80
2023-02-15T20:46:56.966Z,79.05
2023-02-15T20:49:26.906Z,79.19
2023-02-15T20:51:56.653Z,78.71
2023-02-15T20:54:28.936Z,78.66
2023-02-15T20:56:57.509Z,78.79
2023-02-15T20:59:28.369Z,78.71
2023-02-15T21:02:21.054Z,79.54
2023-02-15T21:04:50.066Z,79.55
2023-02-15T21:07:20.736Z,79.32
2023-02-15T21:09:49.004Z,79.51
2023-02-15T21:12:20.027Z,79.50
2023-02-15T21:14:48.412Z,79.36
2023-02-15T21:17:17.470Z,79.56
2023-02-15T21:19:46.310Z,79.23
2023-02-15T21:22:16.411Z,79.47
2023-02-15T21:24:50.780Z,79.18
2023-02-15T21:27:19.424Z,79.11
2023-02-15T21:29:47.684Z,79.50
2023-02-15T21:32:16.010Z,79.93
2023-02-15T21:34:44.343Z,79.44
2023-02-15T21:37:42.656Z,79.36
2023-02-15T21:40:13.788Z,79.86
2023-02-15T21:43:00.829Z,79.61
2023-02-15T21:45:47.977Z,79.13
2023-02-15T21:48:16.428Z,79.10
2023-02-15T21:51:04.020Z,78.50
2023-02-15T21:53:36.007Z,78.22
2023-02-15T21:56:13.740Z,78.45
2023-02-15T21:58:42.243Z,78.69
2023-02-15T22:01:27.628Z,78.21
2023-02-15T22:03:58.222Z,78.14
2023-02-15T22:06:26.642Z,78.04
2023-02-15T22:08:55.213Z,78.06
2023-02-15T22:11:23.385Z,78.56
2023-02-15T22:13:51.983Z,78.94
2023-02-15T22:16:22.279Z,78.79
2023-02-15T22:18:50.699Z,78.77
2023-02-15T22:21:19.340Z,78.85
2023-02-15T22:23:47.628Z,78.87
2023-02-15T22:26:22.725Z,78.77
2023-02-15T22:28:51.451Z,79.21
2023-02-15T22:31:22.482Z,79.76
2023-02-15T22:33:51.488Z,80.47
2023-02-15T22:36:28.825Z,80.52
2023-02-15T22:38:58.076Z,79.88
2023-02-15T22:41:30.611Z,79.76
2023-02-15T22:43:59.332Z,80.24
2023-02-15T22:46:27.604Z,79.72
2023-02-15T22:48:55.842Z,80.45
2023-02-15T22:51:25.183Z,80.06
2023-02-15T22:53:53.933Z,80.01
2023-02-15T22:56:27.581Z,79.86
2023-02-15T22:59:06.031Z,80.83
2023-02-15T23:01:36.967Z,80.22
2023-02-15T23:04:05.640Z,80.13
2023-02-15T23:06:34.684Z,79.91
2023-02-15T23:09:03.592Z,79.56
2023-02-15T23:11:31.765Z,80.66
2023-02-15T23:13:59.971Z,81.08
2023-02-15T23:16:28.637Z,81.82
2023-02-15T23:18:56.687Z,82.49
2023-02-15T23:21:33.704Z,81.70
2023-02-15T23:24:26.663Z,81.38
2023-02-15T23:27:15.839Z,81.17
2023-02-15T23:29:43.938Z,81.15
2023-02-15T23:32:15.962Z,81.37
2023-02-15T23:34:44.472Z,80.75
2023-02-15T23:37:13.506Z,80.84
2023-02-15T23:40:00.514Z,80.82
2023-02-15T23:42:32.176Z,81.73
2023-02-15T23:45:00.632Z,82.02
2023-02-15T23:47:53.125Z,81.97
2023-02-15T23:50:25.672Z,81.00
2023-02-15T23:52:55.796Z,81.32
2023-02-15T23:55:28.582Z,81.21
2023-02-15T23:57:56.904Z,81.84
